createdAt,value
2022-10-19T00:01:40.273Z,101664.13
2022-10-19T00:04:10.705Z,101656.19
2022-10-19T00:06:40.907Z,101661.50
2022-10-19T00:09:13.923Z,101667.59
2022-10-19T00:11:47.478Z,101675.44
2022-10-19T00:14:21.376Z,101665.88
2022-10-19T00:16:53.142Z,101645.84
2022-10-19T00:19:27.515Z,101654.56
2022-10-19T00:21:57.723Z,101658.91
2022-10-19T00:24:27.998Z,101651.06
2022-10-19T00:30:39.038Z,101611.06
2022-10-19T00:33:09.140Z,101635.47
2022-10-19T00:35:42.252Z,101638.03
2022-10-19T00:38:12.335Z,101622.31
2022-10-19T00:40:42.573Z,101634.50
2022-10-19T00:43:22.032Z,101623.25
2022-10-19T00:45:52.710Z,101610.22
2022-10-19T00:48:31.007Z,101621.53
2022-10-19T00:51:01.875Z,101626.75
2022-10-19T00:53:32.091Z,101635.47
2022-10-19T00:56:07.914Z,101629.31
2022-10-19T00:58:38.572Z,101644.94
2022-10-19T01:01:11.473Z,101624.09
2022-10-19T01:03:41.804Z,101607.50
2022-10-19T01:06:18.089Z,101626.69
2022-10-19T01:08:48.291Z,101629.31
2022-10-19T01:11:42.966Z,101630.16
2022-10-19T01:14:34.286Z,101626.69
2022-10-19T01:17:19.372Z,101621.47
2022-10-19T01:20:14.132Z,101619.75
2022-10-19T01:23:05.137Z,101613.66
2022-10-19T01:25:48.947Z,101602.34
2022-10-19T01:28:46.356Z,101617.16
2022-10-19T01:31:19.331Z,101614.53
2022-10-19T01:34:10.011Z,101609.31
2022-10-19T01:36:43.534Z,101611.03
2022-10-19T01:39:38.644Z,101589.28
2022-10-19T01:42:29.971Z,101597.06
2022-10-19T01:45:14.782Z,101599.75
2022-10-19T01:48:15.717Z,101606.72
2022-10-19T01:51:00.616Z,101610.16
2022-10-19T01:53:39.649Z,101587.50
2022-10-19T01:56:11.586Z,101590.97
2022-10-19T01:58:45.513Z,101600.56
2022-10-19T02:01:19.659Z,101591.88
2022-10-19T02:03:50.510Z,101593.63
2022-10-19T02:06:21.159Z,101554.44
2022-10-19T02:08:53.483Z,101582.31
2022-10-19T02:11:24.375Z,101578.00
2022-10-19T02:14:05.159Z,101578.00
2022-10-19T02:16:42.457Z,101584.94
2022-10-19T02:19:15.737Z,101564.00
2022-10-19T02:21:46.146Z,101593.59
2022-10-19T02:24:16.334Z,101577.06
2022-10-19T02:26:46.604Z,101583.13
2022-10-19T02:29:17.290Z,101588.31
2022-10-19T02:31:47.586Z,101584.75
2022-10-19T02:34:17.852Z,101591.72
2022-10-19T02:36:48.059Z,101584.72
2022-10-19T02:39:18.267Z,101590.78
2022-10-19T02:41:56.266Z,101595.19
2022-10-19T02:44:50.512Z,101592.56
2022-10-19T02:47:26.349Z,101583.91
2022-10-19T02:49:56.401Z,101576.06
2022-10-19T02:52:26.580Z,101576.94
2022-10-19T02:54:56.742Z,101576.06
2022-10-19T02:57:26.856Z,101563.81
2022-10-19T02:59:56.988Z,101576.03
2022-10-19T03:02:27.239Z,101581.22
2022-10-19T03:04:57.467Z,101580.34
2022-10-19T03:07:27.628Z,101577.69
2022-10-19T03:09:57.959Z,101584.69
2022-10-19T03:12:28.421Z,101581.22
2022-10-19T03:14:58.492Z,101537.66
2022-10-19T03:17:28.673Z,101588.16
2022-10-19T03:19:58.813Z,101582.06
2022-10-19T03:22:28.868Z,101567.25
2022-10-19T03:24:58.992Z,101576.81
2022-10-19T03:27:29.119Z,101580.28
2022-10-19T03:29:59.228Z,101564.66
2022-10-19T03:32:29.352Z,101582.91
2022-10-19T03:34:59.545Z,101579.44
2022-10-19T03:37:29.818Z,101572.53
2022-10-19T03:40:00.021Z,101571.69
2022-10-19T03:42:30.177Z,101569.00
2022-10-19T03:45:00.241Z,101557.63
2022-10-19T03:47:30.629Z,101574.94
2022-10-19T03:50:00.871Z,101556.63
2022-10-19T03:52:30.952Z,101587.03
2022-10-19T03:55:01.142Z,101599.06
2022-10-19T03:57:31.430Z,101611.16
2022-10-19T04:00:01.994Z,101602.44
2022-10-19T04:02:32.149Z,101605.97
2022-10-19T04:05:02.278Z,101593.81
2022-10-19T04:07:32.609Z,101613.81
2022-10-19T04:10:03.296Z,101614.72
2022-10-19T04:12:33.611Z,101617.31
2022-10-19T04:15:05.392Z,101594.75
2022-10-19T04:17:35.784Z,101613.09
2022-10-19T04:20:06.746Z,101607.03
2022-10-19T04:22:36.963Z,101619.22
2022-10-19T04:25:09.281Z,101615.78
2022-10-19T04:27:39.358Z,101627.16
2022-10-19T04:30:09.897Z,101611.56
2022-10-19T04:32:40.010Z,101634.91
2022-10-19T04:35:10.152Z,101645.13
2022-10-19T04:37:40.275Z,101627.66
2022-10-19T04:40:14.983Z,101648.50
2022-10-19T04:42:45.489Z,101620.66
2022-10-19T04:45:15.677Z,101645.00
2022-10-19T04:47:45.751Z,101635.41
2022-10-19T04:50:16.061Z,101637.16
2022-10-19T04:52:46.230Z,101646.81
2022-10-19T04:55:17.028Z,101632.84
2022-10-19T04:57:47.261Z,101628.44
2022-10-19T05:00:17.460Z,101647.63
2022-10-19T05:02:48.241Z,101629.44
2022-10-19T05:05:18.536Z,101640.84
2022-10-19T05:07:49.289Z,101649.53
2022-10-19T05:10:19.404Z,101644.28
2022-10-19T05:12:49.444Z,101656.38
2022-10-19T05:15:19.583Z,101656.41
2022-10-19T05:17:49.613Z,101654.56
2022-10-19T05:20:20.114Z,101653.69
2022-10-19T05:22:50.863Z,101652.69
2022-10-19T05:25:21.144Z,101651.91
2022-10-19T05:27:52.815Z,101671.09
2022-10-19T05:30:22.958Z,101673.66
2022-10-19T05:32:53.107Z,101651.78
2022-10-19T05:35:23.298Z,101665.81
2022-10-19T05:37:58.522Z,101681.53
2022-10-19T05:40:28.853Z,101664.97
2022-10-19T05:42:59.007Z,101670.09
2022-10-19T05:45:29.118Z,101687.53
2022-10-19T05:47:59.363Z,101677.91
2022-10-19T05:50:29.605Z,101681.41
2022-10-19T05:52:59.813Z,101677.06
2022-10-19T05:55:30.008Z,101691.91
2022-10-19T05:58:00.260Z,101690.13
2022-10-19T06:00:30.623Z,101692.59
2022-10-19T06:03:00.742Z,101693.47
2022-10-19T06:05:30.805Z,101701.34
2022-10-19T06:08:00.937Z,101703.19
2022-10-19T06:10:31.042Z,101697.13
2022-10-19T06:13:01.174Z,101704.09
2022-10-19T06:15:34.649Z,101714.47
2022-10-19T06:18:05.254Z,101724.94
2022-10-19T06:20:40.134Z,101717.03
2022-10-19T06:23:10.388Z,101716.16
2022-10-19T06:25:41.987Z,101730.88
2022-10-19T06:28:12.308Z,101741.25
2022-10-19T06:30:42.877Z,101734.19
2022-10-19T06:33:12.991Z,101733.25
2022-10-19T06:35:43.283Z,101734.94
2022-10-19T06:38:14.034Z,101746.28
2022-10-19T06:40:44.351Z,101745.44
2022-10-19T06:43:14.728Z,101762.75
2022-10-19T06:45:45.097Z,101765.31
2022-10-19T06:48:15.229Z,101776.69
2022-10-19T06:50:45.553Z,101781.81
2022-10-19T06:53:15.645Z,101773.97
2022-10-19T06:55:45.713Z,101783.50
2022-10-19T06:58:15.883Z,101795.75
2022-10-19T07:00:46.232Z,101795.72
2022-10-19T07:03:17.848Z,101784.34
2022-10-19T07:05:56.552Z,101811.34
2022-10-19T07:08:28.718Z,101797.38
2022-10-19T07:11:01.451Z,101819.16
2022-10-19T07:13:31.692Z,101816.63
2022-10-19T07:16:16.110Z,101804.25
2022-10-19T07:18:52.347Z,101801.72
2022-10-19T07:21:23.660Z,101824.44
2022-10-19T07:23:53.799Z,101828.91
2022-10-19T07:26:26.945Z,101820.22
2022-10-19T07:28:57.630Z,101842.09
2022-10-19T07:31:29.516Z,101829.84
2022-10-19T07:34:02.137Z,101833.28
2022-10-19T07:36:37.081Z,101827.13
2022-10-19T07:39:07.939Z,101834.16
2022-10-19T07:41:39.245Z,101860.28
2022-10-19T07:44:10.965Z,101858.59
2022-10-19T07:46:44.199Z,101828.06
2022-10-19T07:49:20.159Z,101862.16
2022-10-19T07:51:54.217Z,101857.88
2022-10-19T07:54:24.742Z,101848.19
2022-10-19T07:56:54.895Z,101862.19
2022-10-19T07:59:24.928Z,101862.19
2022-10-19T08:01:57.194Z,101886.50
2022-10-19T08:07:17.509Z,101868.28
2022-10-19T08:09:53.235Z,101869.19
2022-10-19T08:12:23.919Z,101871.78
2022-10-19T08:14:54.583Z,101864.78
2022-10-19T08:17:24.707Z,101901.44
2022-10-19T08:19:54.950Z,101876.25
2022-10-19T08:22:24.990Z,101874.53
2022-10-19T08:24:55.108Z,101879.78
2022-10-19T08:27:25.665Z,101865.75
2022-10-19T08:29:55.775Z,101879.72
2022-10-19T08:32:25.878Z,101883.31
2022-10-19T08:34:56.017Z,101899.81
2022-10-19T08:37:40.687Z,101897.06
2022-10-19T08:40:21.343Z,101903.88
2022-10-19T08:43:05.514Z,101914.03
2022-10-19T08:45:59.488Z,101932.81
2022-10-19T08:48:33.284Z,101932.81
2022-10-19T08:51:05.750Z,101933.66
2022-10-19T08:54:05.003Z,101935.44
2022-10-19T08:56:55.832Z,101927.69
2022-10-19T08:59:45.680Z,101938.13
2022-10-19T09:02:29.118Z,101939.19
2022-10-19T09:05:08.271Z,101938.38
2022-10-19T09:07:45.651Z,101936.53
2022-10-19T09:10:19.619Z,101941.84
2022-10-19T09:12:49.687Z,101951.31
2022-10-19T09:15:26.330Z,101947.63
2022-10-19T09:17:56.477Z,101964.81
2022-10-19T09:20:33.752Z,101979.81
2022-10-19T09:23:13.441Z,101979.41
2022-10-19T09:25:43.812Z,101952.34
2022-10-19T09:29:02.540Z,101972.66
2022-10-19T09:31:40.479Z,101972.94
2022-10-19T09:34:16.971Z,101967.78
2022-10-19T09:36:53.145Z,101958.06
2022-10-19T09:39:27.069Z,101960.72
2022-10-19T09:42:02.825Z,101976.50
2022-10-19T09:44:33.103Z,101965.25
2022-10-19T09:47:13.924Z,101954.06
2022-10-19T09:49:47.242Z,101992.09
2022-10-19T09:52:29.568Z,101984.50
2022-10-19T09:55:13.345Z,102002.66
2022-10-19T09:58:04.647Z,102000.91
2022-10-19T10:00:42.866Z,101999.25
2022-10-19T10:03:23.535Z,102009.03
2022-10-19T10:05:55.878Z,101979.38
2022-10-19T10:08:30.363Z,101991.38
2022-10-19T10:11:08.315Z,101987.09
2022-10-19T10:13:41.772Z,102011.84
2022-10-19T10:16:16.028Z,102018.69
2022-10-19T10:19:00.883Z,102007.38
2022-10-19T10:21:36.539Z,102015.19
2022-10-19T10:24:12.708Z,102022.22
2022-10-19T10:26:48.561Z,102025.88
2022-10-19T10:29:22.910Z,101999.78
2022-10-19T10:32:02.066Z,102002.41
2022-10-19T10:34:51.026Z,102032.97
2022-10-19T10:37:46.601Z,102047.56
2022-10-19T10:40:28.808Z,102013.34
2022-10-19T10:43:06.823Z,102037.59
2022-10-19T10:45:46.742Z,102018.19
2022-10-19T10:48:38.758Z,102031.50
2022-10-19T10:51:20.971Z,102027.16
2022-10-19T10:53:51.922Z,102039.53
2022-10-19T10:56:27.640Z,102031.78
2022-10-19T10:59:07.733Z,102039.69
2022-10-19T11:01:46.461Z,102035.31
2022-10-19T11:04:24.219Z,102043.38
2022-10-19T11:07:08.596Z,102028.81
2022-10-19T11:09:44.270Z,102036.69
2022-10-19T11:12:19.765Z,102013.06
2022-10-19T11:14:57.322Z,102028.13
2022-10-19T11:17:34.036Z,102048.09
2022-10-19T11:20:06.329Z,102039.53
2022-10-19T11:22:57.689Z,102044.28
2022-10-19T11:25:58.364Z,102037.13
2022-10-19T11:29:18.966Z,102048.41
2022-10-19T11:31:56.889Z,102054.53
2022-10-19T11:34:48.059Z,102054.63
2022-10-19T11:37:25.066Z,102064.19
2022-10-19T11:40:12.036Z,102038.09
2022-10-19T11:42:56.360Z,102080.72
2022-10-19T11:45:55.588Z,102069.38
2022-10-19T11:48:35.830Z,102081.47
2022-10-19T11:51:30.105Z,102078.63
2022-10-19T11:54:32.817Z,102068.19
2022-10-19T11:57:10.539Z,102070.75
2022-10-19T12:00:14.078Z,102071.72
2022-10-19T12:03:12.997Z,102066.56
2022-10-19T12:06:04.469Z,102067.44
2022-10-19T12:08:40.267Z,102085.72
2022-10-19T12:11:21.491Z,102066.59
2022-10-19T12:13:56.438Z,102039.44
2022-10-19T12:16:37.392Z,102067.53
2022-10-19T12:19:17.732Z,102076.22
2022-10-19T12:21:48.874Z,102083.22
2022-10-19T12:24:25.931Z,102055.41
2022-10-19T12:26:57.278Z,102081.75
2022-10-19T12:29:32.614Z,102079.19
2022-10-19T12:32:05.033Z,102070.31
2022-10-19T12:35:01.120Z,102062.63
2022-10-19T12:38:10.847Z,102100.13
2022-10-19T12:40:51.703Z,102112.00
2022-10-19T12:43:38.965Z,102081.91
2022-10-19T12:46:27.552Z,102075.81
2022-10-19T12:49:31.479Z,102090.72
2022-10-19T12:52:02.707Z,102086.38
2022-10-19T12:54:36.236Z,102098.81
2022-10-19T12:57:28.050Z,102071.97
2022-10-19T13:00:00.974Z,102095.53
2022-10-19T13:02:35.883Z,102086.59
2022-10-19T13:05:07.413Z,102086.59
2022-10-19T13:07:38.187Z,102098.78
2022-10-19T13:10:20.890Z,102112.63
2022-10-19T13:12:52.166Z,102109.00
2022-10-19T13:15:34.710Z,102111.69
2022-10-19T13:18:17.099Z,102123.84
2022-10-19T13:20:54.085Z,102117.91
2022-10-19T13:23:27.222Z,102129.97
2022-10-19T13:26:45.496Z,102135.28
2022-10-19T13:29:25.902Z,102129.28
2022-10-19T13:32:16.012Z,102128.47
2022-10-19T13:34:46.999Z,102123.38
2022-10-19T13:37:19.277Z,102131.97
2022-10-19T13:39:50.043Z,102120.63
2022-10-19T13:42:28.325Z,102104.88
2022-10-19T13:44:58.580Z,102112.72
2022-10-19T13:50:22.753Z,102138.00
2022-10-19T13:53:08.046Z,102147.44
2022-10-19T13:55:49.238Z,102148.13
2022-10-19T13:58:36.579Z,102146.34
2022-10-19T14:01:45.792Z,102149.91
2022-10-19T14:04:42.465Z,102143.41
2022-10-19T14:07:39.012Z,102157.38
2022-10-19T14:10:33.112Z,102135.41
2022-10-19T14:13:15.486Z,102137.88
2022-10-19T14:15:55.212Z,102153.69
2022-10-19T14:18:28.972Z,102158.16
2022-10-19T14:21:05.188Z,102145.97
2022-10-19T14:23:39.937Z,102150.38
2022-10-19T14:26:20.708Z,102154.97
2022-10-19T14:28:57.377Z,102169.06
2022-10-19T14:31:37.420Z,102136.84
2022-10-19T14:34:09.433Z,102156.16
2022-10-19T14:36:45.207Z,102161.53
2022-10-19T14:39:30.906Z,102151.84
2022-10-19T14:42:06.116Z,102164.28
2022-10-19T14:44:42.765Z,102161.66
2022-10-19T14:47:20.655Z,102174.69
2022-10-19T14:49:51.144Z,102145.69
2022-10-19T14:52:31.663Z,102171.22
2022-10-19T14:55:11.589Z,102155.50
2022-10-19T14:57:47.719Z,102164.19
2022-10-19T15:00:21.423Z,102181.69
2022-10-19T15:02:54.326Z,102185.13
2022-10-19T15:05:28.490Z,102179.91
2022-10-19T15:08:10.331Z,102181.72
2022-10-19T15:10:46.708Z,102184.31
2022-10-19T15:13:47.591Z,102193.91
2022-10-19T15:16:49.858Z,102190.28
2022-10-19T15:19:32.017Z,102185.94
2022-10-19T15:22:21.978Z,102193.59
2022-10-19T15:25:08.703Z,102185.63
2022-10-19T15:27:46.327Z,102173.31
2022-10-19T15:30:19.728Z,102191.72
2022-10-19T15:33:02.215Z,102166.09
2022-10-19T15:35:38.902Z,102191.63
2022-10-19T15:38:19.852Z,102191.69
2022-10-19T15:40:58.172Z,102190.84
2022-10-19T15:43:34.037Z,102190.91
2022-10-19T15:46:13.744Z,102196.88
2022-10-19T15:48:51.120Z,102167.78
2022-10-19T15:51:24.455Z,102201.00
2022-10-19T15:53:58.491Z,102206.25
2022-10-19T15:56:31.990Z,102181.63
2022-10-19T15:59:05.776Z,102182.44
2022-10-19T16:01:36.498Z,102189.50
2022-10-19T16:04:07.711Z,102211.28
2022-10-19T16:06:42.035Z,102214.59
2022-10-19T16:09:20.471Z,102212.13
2022-10-19T16:11:56.781Z,102191.06
2022-10-19T16:14:30.850Z,102205.91
2022-10-19T16:17:05.954Z,102203.19
2022-10-19T16:19:36.186Z,102213.81
2022-10-19T16:22:06.596Z,102208.56
2022-10-19T16:24:37.020Z,102211.06
2022-10-19T16:27:08.001Z,102213.00
2022-10-19T16:29:38.168Z,102226.13
2022-10-19T16:32:09.382Z,102212.94
2022-10-19T16:34:39.538Z,102228.69
2022-10-19T16:37:09.605Z,102228.72
2022-10-19T16:39:39.910Z,102219.09
2022-10-19T16:42:10.054Z,102235.53
2022-10-19T16:44:40.167Z,102232.84
2022-10-19T16:47:14.013Z,102237.22
2022-10-19T16:49:44.202Z,102229.34
2022-10-19T16:52:17.251Z,102239.03
2022-10-19T16:54:47.425Z,102232.09
2022-10-19T16:57:17.820Z,102237.31
2022-10-19T17:02:24.074Z,102236.50
2022-10-19T17:04:54.468Z,102241.00
2022-10-19T17:07:24.788Z,102237.47
2022-10-19T17:09:55.122Z,102252.38
2022-10-19T17:12:25.552Z,102258.56
2022-10-19T17:15:00.498Z,102248.03
2022-10-19T17:17:44.663Z,102248.09
2022-10-19T17:20:15.883Z,102264.78
2022-10-19T17:22:46.306Z,102269.94
2022-10-19T17:25:16.558Z,102262.88
2022-10-19T17:27:51.114Z,102256.56
2022-10-19T17:30:21.234Z,102267.13
2022-10-19T17:32:51.425Z,102259.13
2022-10-19T17:35:21.645Z,102274.06
2022-10-19T17:37:53.173Z,102285.22
2022-10-19T17:40:23.526Z,102284.25
2022-10-19T17:42:53.819Z,102285.25
2022-10-19T17:45:27.458Z,102275.56
2022-10-19T17:47:57.750Z,102286.91
2022-10-19T17:50:27.894Z,102289.53
2022-10-19T17:52:58.975Z,102288.69
2022-10-19T17:55:29.177Z,102293.97
2022-10-19T17:58:02.298Z,102288.66
2022-10-19T18:00:34.809Z,102292.16
2022-10-19T18:03:05.026Z,102288.50
2022-10-19T18:05:35.308Z,102283.03
2022-10-19T18:08:05.500Z,102281.47
2022-10-19T18:10:37.236Z,102307.59
2022-10-19T18:13:07.540Z,102302.44
2022-10-19T18:15:37.641Z,102298.91
2022-10-19T18:18:07.729Z,102295.56
2022-10-19T18:20:40.262Z,102291.19
2022-10-19T18:23:10.424Z,102303.38
2022-10-19T18:25:53.600Z,102314.63
2022-10-19T18:28:24.282Z,102316.41
2022-10-19T18:30:54.477Z,102315.53
2022-10-19T18:33:29.050Z,102321.59
2022-10-19T18:36:01.953Z,102313.03
2022-10-19T18:38:32.294Z,102297.22
2022-10-19T18:41:08.651Z,102298.81
2022-10-19T18:43:40.189Z,102309.41
2022-10-19T18:46:10.753Z,102312.00
2022-10-19T18:48:40.887Z,102319.03
2022-10-19T18:51:11.250Z,102295.56
2022-10-19T18:53:42.148Z,102319.00
2022-10-19T18:56:15.113Z,102316.25
2022-10-19T18:58:45.494Z,102316.25
2022-10-19T19:01:19.696Z,102318.03
2022-10-19T19:03:52.495Z,102306.72
2022-10-19T19:06:26.730Z,102318.25
2022-10-19T19:08:58.662Z,102313.88
2022-10-19T19:11:34.444Z,102319.22
2022-10-19T19:14:13.759Z,102302.50
2022-10-19T19:16:45.678Z,102321.00
2022-10-19T19:19:17.790Z,102326.22
2022-10-19T19:21:51.490Z,102331.41
2022-10-19T19:24:22.648Z,102328.59
2022-10-19T19:26:57.251Z,102335.63
2022-10-19T19:29:28.089Z,102346.13
2022-10-19T19:32:01.107Z,102333.00
2022-10-19T19:34:31.473Z,102329.41
2022-10-19T19:37:01.855Z,102345.25
2022-10-19T19:39:33.032Z,102341.63
2022-10-19T19:42:03.382Z,102329.19
2022-10-19T19:44:33.562Z,102360.66
2022-10-19T19:47:03.831Z,102344.75
2022-10-19T19:49:36.518Z,102363.97
2022-10-19T19:52:06.973Z,102343.81
2022-10-19T19:54:37.088Z,102361.25
2022-10-19T19:57:08.108Z,102357.59
2022-10-19T19:59:38.549Z,102323.34
2022-10-19T20:02:10.721Z,102359.25
2022-10-19T20:04:40.838Z,102342.50
2022-10-19T20:07:13.267Z,102360.78
2022-10-19T20:09:45.627Z,102359.84
2022-10-19T20:12:17.242Z,102320.97
2022-10-19T20:14:47.442Z,102373.47
2022-10-19T20:17:23.631Z,102356.69
2022-10-19T20:19:53.832Z,102365.22
2022-10-19T20:22:26.205Z,102365.03
2022-10-19T20:24:56.510Z,102384.22
2022-10-19T20:27:26.757Z,102374.41
2022-10-19T20:29:59.877Z,102387.38
2022-10-19T20:32:30.104Z,102373.44
2022-10-19T20:35:00.277Z,102369.91
2022-10-19T20:37:31.449Z,102381.41
2022-10-19T20:40:07.445Z,102389.44
2022-10-19T20:42:38.868Z,102388.66
2022-10-19T20:45:09.548Z,102391.22
2022-10-19T20:47:42.120Z,102399.06
2022-10-19T20:50:12.230Z,102380.75
2022-10-19T20:52:42.574Z,102375.41
2022-10-19T20:55:12.677Z,102391.97
2022-10-19T20:57:42.804Z,102376.16
2022-10-19T21:00:13.637Z,102385.94
2022-10-19T21:02:46.826Z,102383.47
2022-10-19T21:05:17.107Z,102384.34
2022-10-19T21:07:47.214Z,102369.38
2022-10-19T21:10:17.304Z,102368.50
2022-10-19T21:12:47.479Z,102379.94
2022-10-19T21:15:17.619Z,102364.94
2022-10-19T21:17:48.166Z,102380.81
2022-10-19T21:20:18.396Z,102353.63
2022-10-19T21:22:48.533Z,102387.03
2022-10-19T21:25:18.704Z,102380.88
2022-10-19T21:27:52.012Z,102384.44
2022-10-19T21:30:22.243Z,102384.34
2022-10-19T21:32:52.438Z,102388.81
2022-10-19T21:35:22.576Z,102380.16
2022-10-19T21:37:52.637Z,102389.69
2022-10-19T21:40:22.733Z,102375.63
2022-10-19T21:42:52.870Z,102392.22
2022-10-19T21:45:30.391Z,102392.13
2022-10-19T21:48:00.889Z,102384.13
2022-10-19T21:50:31.101Z,102405.63
2022-10-19T21:53:01.298Z,102387.13
2022-10-19T21:55:34.096Z,102393.31
2022-10-19T21:58:05.240Z,102401.88
2022-10-19T22:00:36.434Z,102397.53
2022-10-19T22:03:06.695Z,102392.38
2022-10-19T22:05:36.982Z,102393.38
2022-10-19T22:08:07.076Z,102400.34
2022-10-19T22:10:38.071Z,102393.25
2022-10-19T22:13:08.237Z,102392.50
2022-10-19T22:15:39.410Z,102405.66
2022-10-19T22:18:09.893Z,102404.81
2022-10-19T22:20:40.754Z,102393.53
2022-10-19T22:23:10.892Z,102401.38
2022-10-19T22:25:40.972Z,102404.00
2022-10-19T22:28:11.020Z,102411.09
2022-10-19T22:30:45.186Z,102400.59
2022-10-19T22:33:15.846Z,102406.88
2022-10-19T22:36:02.536Z,102414.00
2022-10-19T22:38:33.103Z,102416.72
2022-10-19T22:41:03.561Z,102403.50
2022-10-19T22:43:33.629Z,102408.50
2022-10-19T22:46:03.983Z,102419.09
2022-10-19T22:48:34.446Z,102408.59
2022-10-19T22:51:04.603Z,102413.03
2022-10-19T22:53:34.655Z,102412.16
2022-10-19T22:56:05.300Z,102407.84
2022-10-19T22:58:35.384Z,102425.50
2022-10-19T23:01:08.338Z,102411.50
2022-10-19T23:03:40.506Z,102410.66
2022-10-19T23:06:13.704Z,102422.19
2022-10-19T23:08:44.940Z,102411.63
2022-10-19T23:11:16.026Z,102424.56
2022-10-19T23:13:46.128Z,102422.03
2022-10-19T23:16:16.332Z,102423.72
2022-10-19T23:18:46.471Z,102426.25
2022-10-19T23:21:16.579Z,102426.31
2022-10-19T23:23:46.811Z,102403.50
2022-10-19T23:26:19.083Z,102413.13
2022-10-19T23:28:50.815Z,102418.38
2022-10-19T23:31:26.682Z,102428.72
2022-10-19T23:33:57.167Z,102406.78
2022-10-19T23:36:28.934Z,102409.38
2022-10-19T23:38:59.235Z,102426.53
2022-10-19T23:41:29.247Z,102433.13
2022-10-19T23:43:59.405Z,102416.41
2022-10-19T23:46:29.497Z,102432.28
2022-10-19T23:48:59.766Z,102406.84
2022-10-19T23:51:29.860Z,102391.06
2022-10-19T23:54:00.052Z,102425.44
2022-10-19T23:56:30.143Z,102408.50
2022-10-19T23:59:00.233Z,102425.09
